메인 페이지
METAR-TAF:

METAR-TAF

공항 :

오타와 맥도널드 카르티에 국제공항

오타와, 온타리오, 캐나다

위도: 45-19N, 경도: 075-40W, 고도: 116m

현재 날씨관측

예보는 1 시간 14분 전, 04:00시(UTC)에 발표되었습니다.
8kt
온도 -5°C
습도 45%
기압 1021 hPa
시정: 24.1km
맑음

METAR: CYOW 260400Z 27008KT 15SM SKC M05/M15 A3016 RMK SLP221

시각: 01:14 (05:14 UTC)

예보

예보는 2 시간 36분 전, 02:38시(UTC)에 발표되었습니다.
예보 대상 시간: 26일 03시부터 26일 24시까지 (UTC)
남남서7kt
시정: 10km
맑음
전환 중
26일 08시부터 26일 10시까지 (UTC)
서북서7kt
전환 중
26일 14시부터 26일 16시까지 (UTC)
10kt, 순간 최대 풍속 20kt
26일 2000시부터 (UTC)
서북서12kt
시정: 10km
맑음

TAF: CYOW 260238Z 2603/2624 21007KT P6SM SKC BECMG 2608/2610 30007KT BECMG 2614/2616 27010G20KT FM262000 29012KT P6SM SKC RMK NXT FCST BY 260600Z

4,000개 이상의 공항 관측 자료 및 예보 (METAR 및 TAF 보고).

지도상에서 검색 가능한 기상관측소가 노란 점과 빨간 점으로 표시되어 있습니다.

기상관측소 명을 보려면 표시 위로 마우스를 이동하세요.

날씨 관측과 예보를 보려면 클릭하세요.

지도 변경 : 확대하려면 엑스 표시가 있는 녹색 버튼, 축소하려면 빼기 표시가 있는 녹색 버튼, 다음 페이지의 지도를 보려면 녹색 화살표를 클릭하세요.


METAR-TAF: